DTTA

Tunis Carthage International Airport

Tunis, Tunisia
METAR DTTA 240300Z 20006KT 9999 SCT026 22/18 Q1018 NOSIG
Observed Flight Rules
Sep-24 @ 03:00 UTC (45 minutes ago) Visual Flight Rules
Wind Visibility Clouds
200° at 6 knots 10,000+ meters
  • Scattered at 2,600' AGL
Temperatures Readings
Current 22°C / 72°F
Dewpoint 18°C / 64°F
Humidity 78%
Altimeter 30.06" Hg
Pressure 1018 hPa
Elevation 4
METAR DTTA 240300Z 20006KT 9999 SCT026 22/18 Q1018 NOSIG
Observed Flight Rules
Sep-24 @ 03:00 UTC
(45 minutes ago)
VFR
Wind Visibility
200° at 6 knots 10,000+ meters
Clouds
  • Scattered at 2,600' AGL
Temperature Dewpoint
22°C / 72°F 18°C / 64°F
Humidity Altimeter Pressure
78% 30.06" Hg 1018 hPa